createdAt,value
2022-11-25T00:00:18.030Z,1016.04
2022-11-25T00:01:18.046Z,1016.03
2022-11-25T00:02:18.146Z,1016.04
2022-11-25T00:03:18.098Z,1016.02
2022-11-25T00:04:17.977Z,1016.04
2022-11-25T00:05:17.996Z,1016.02
2022-11-25T00:06:17.963Z,1016.06
2022-11-25T00:07:18.011Z,1016.00
2022-11-25T00:08:17.956Z,1015.98
2022-11-25T00:09:17.923Z,1016.01
2022-11-25T00:10:17.886Z,1015.95
2022-11-25T00:11:17.900Z,1015.95
2022-11-25T00:12:17.887Z,1015.99
2022-11-25T00:13:17.859Z,1015.95
2022-11-25T00:14:17.889Z,1015.98
2022-11-25T00:15:17.865Z,1015.97
2022-11-25T00:16:17.856Z,1015.93
2022-11-25T00:17:17.820Z,1015.88
2022-11-25T00:18:17.785Z,1015.90
2022-11-25T00:19:17.770Z,1015.92
2022-11-25T00:20:17.821Z,1015.94
2022-11-25T00:21:17.742Z,1015.91
2022-11-25T00:22:17.778Z,1015.93
2022-11-25T00:23:17.707Z,1015.91
2022-11-25T00:24:17.732Z,1015.95
2022-11-25T00:25:17.707Z,1015.91
2022-11-25T00:26:17.753Z,1015.89
2022-11-25T00:27:17.664Z,1015.93
2022-11-25T00:28:17.674Z,1015.84
2022-11-25T00:29:17.645Z,1015.88
2022-11-25T00:30:17.767Z,1015.89
2022-11-25T00:31:17.648Z,1015.90
2022-11-25T00:32:17.670Z,1015.92
2022-11-25T00:33:17.582Z,1015.87
2022-11-25T00:34:17.585Z,1015.84
2022-11-25T00:35:17.563Z,1015.88
2022-11-25T00:36:17.578Z,1015.84
2022-11-25T00:37:17.529Z,1015.80
2022-11-25T00:38:17.618Z,1015.85
2022-11-25T00:39:17.524Z,1015.80
2022-11-25T00:40:17.520Z,1015.82
2022-11-25T00:41:17.486Z,1015.79
2022-11-25T00:42:17.514Z,1015.81
2022-11-25T00:43:17.450Z,1015.79
2022-11-25T00:44:17.505Z,1015.80
2022-11-25T00:45:17.428Z,1015.77
2022-11-25T00:46:17.501Z,1015.77
2022-11-25T00:47:17.405Z,1015.73
2022-11-25T00:48:17.415Z,1015.77
2022-11-25T00:49:17.397Z,1015.79
2022-11-25T00:50:17.404Z,1015.69
2022-11-25T00:51:17.350Z,1015.73
2022-11-25T00:52:17.366Z,1015.71
2022-11-25T00:53:17.319Z,1015.71
2022-11-25T00:54:17.328Z,1015.69
2022-11-25T00:55:17.294Z,1015.69
2022-11-25T00:56:17.385Z,1015.70
2022-11-25T00:57:17.294Z,1015.69
2022-11-25T00:58:17.282Z,1015.60
2022-11-25T00:59:17.245Z,1015.58
2022-11-25T01:00:17.276Z,1015.59
2022-11-25T01:01:17.288Z,1015.57
2022-11-25T01:02:17.294Z,1015.56
2022-11-25T01:03:17.190Z,1015.53
2022-11-25T01:04:17.201Z,1015.54
2022-11-25T01:05:17.178Z,1015.51
2022-11-25T01:06:17.147Z,1015.53
2022-11-25T01:07:17.290Z,1015.52
2022-11-25T01:08:17.160Z,1015.57
2022-11-25T01:09:17.151Z,1015.58
2022-11-25T01:10:17.116Z,1015.61
2022-11-25T01:11:17.111Z,1015.56
2022-11-25T01:12:17.101Z,1015.59
2022-11-25T01:13:17.095Z,1015.53
2022-11-25T01:14:17.092Z,1015.58
2022-11-25T01:15:17.085Z,1015.58
2022-11-25T01:16:17.078Z,1015.59
2022-11-25T01:17:17.074Z,1015.60
2022-11-25T01:18:16.992Z,1015.60
2022-11-25T01:19:17.500Z,1015.62
2022-11-25T01:20:17.021Z,1015.60
2022-11-25T01:21:16.978Z,1015.63
2022-11-25T01:22:16.942Z,1015.64
2022-11-25T01:23:16.954Z,1015.61
2022-11-25T01:24:16.948Z,1015.61
2022-11-25T01:25:16.927Z,1015.65
2022-11-25T01:26:16.935Z,1015.60
2022-11-25T01:27:16.898Z,1015.57
2022-11-25T01:28:16.873Z,1015.60
2022-11-25T01:29:16.890Z,1015.55
2022-11-25T01:30:16.837Z,1015.58
2022-11-25T01:31:16.913Z,1015.56
2022-11-25T01:32:16.864Z,1015.56
2022-11-25T01:33:16.815Z,1015.54
2022-11-25T01:34:16.778Z,1015.53
2022-11-25T01:36:15.295Z,1015.57
2022-11-25T01:37:16.253Z,1015.54
2022-11-25T01:38:16.292Z,1015.51
2022-11-25T01:39:16.229Z,1015.50
2022-11-25T01:40:16.232Z,1015.52
2022-11-25T01:41:16.239Z,1015.51
2022-11-25T01:42:16.211Z,1015.46
2022-11-25T01:43:16.187Z,1015.57
2022-11-25T01:44:16.241Z,1015.53
2022-11-25T01:45:16.142Z,1015.55
2022-11-25T01:46:16.270Z,1015.52
2022-11-25T01:47:16.129Z,1015.55
2022-11-25T01:48:16.129Z,1015.61
2022-11-25T01:49:16.101Z,1015.60
2022-11-25T01:50:16.148Z,1015.61
2022-11-25T01:51:16.076Z,1015.60
2022-11-25T01:52:16.092Z,1015.66
2022-11-25T01:53:16.046Z,1015.64
2022-11-25T01:54:16.060Z,1015.65
2022-11-25T01:55:16.027Z,1015.59
2022-11-25T01:56:16.069Z,1015.60
2022-11-25T01:57:15.999Z,1015.62
2022-11-25T01:58:16.008Z,1015.67
2022-11-25T01:59:15.993Z,1015.65
2022-11-25T02:00:15.977Z,1015.62
2022-11-25T02:01:16.029Z,1015.65
2022-11-25T02:02:16.067Z,1015.63
2022-11-25T02:03:15.942Z,1015.59
2022-11-25T02:04:15.945Z,1015.60
2022-11-25T02:05:15.894Z,1015.61
2022-11-25T02:06:15.898Z,1015.61
2022-11-25T02:07:15.910Z,1015.55
2022-11-25T02:08:15.932Z,1015.54
2022-11-25T02:09:15.866Z,1015.52
2022-11-25T02:10:15.823Z,1015.46
2022-11-25T02:11:15.864Z,1015.48
2022-11-25T02:12:15.802Z,1015.52
2022-11-25T02:13:15.827Z,1015.51
2022-11-25T02:14:15.842Z,1015.46
2022-11-25T02:15:15.791Z,1015.51
2022-11-25T02:16:15.825Z,1015.50
2022-11-25T02:17:15.760Z,1015.48
2022-11-25T02:18:15.727Z,1015.43
2022-11-25T02:19:15.738Z,1015.42
2022-11-25T02:20:15.740Z,1015.45
2022-11-25T02:21:15.711Z,1015.40
2022-11-25T02:22:15.678Z,1015.44
2022-11-25T02:23:15.694Z,1015.36
2022-11-25T02:24:15.640Z,1015.45
2022-11-25T02:25:15.670Z,1015.39
2022-11-25T02:26:15.670Z,1015.41
2022-11-25T02:27:15.629Z,1015.40
2022-11-25T02:28:15.590Z,1015.39
2022-11-25T02:29:15.607Z,1015.39
2022-11-25T02:30:15.566Z,1015.40
2022-11-25T02:31:15.619Z,1015.37
2022-11-25T02:32:15.570Z,1015.33
2022-11-25T02:33:15.550Z,1015.33
2022-11-25T02:34:15.509Z,1015.34
2022-11-25T02:35:15.534Z,1015.34
2022-11-25T02:36:15.556Z,1015.32
2022-11-25T02:37:15.494Z,1015.30
2022-11-25T02:38:15.495Z,1015.32
2022-11-25T02:39:15.470Z,1015.26
2022-11-25T02:40:15.464Z,1015.30
2022-11-25T02:41:15.461Z,1015.27
2022-11-25T02:42:15.450Z,1015.30
2022-11-25T02:43:15.436Z,1015.30
2022-11-25T02:44:15.456Z,1015.28
2022-11-25T02:45:15.409Z,1015.23
2022-11-25T02:46:21.621Z,1015.21
2022-11-25T02:47:15.378Z,1015.23
2022-11-25T02:48:15.387Z,1015.31
2022-11-25T02:49:15.357Z,1015.24
2022-11-25T02:50:15.373Z,1015.26
2022-11-25T02:51:15.338Z,1015.28
2022-11-25T02:52:15.289Z,1015.22
2022-11-25T02:53:15.305Z,1015.23
2022-11-25T02:54:15.258Z,1015.23
2022-11-25T02:55:15.356Z,1015.18
2022-11-25T02:56:15.281Z,1015.18
2022-11-25T02:57:15.254Z,1015.22
2022-11-25T02:58:15.219Z,1015.23
2022-11-25T02:59:15.247Z,1015.27
2022-11-25T03:00:15.186Z,1015.23
2022-11-25T03:01:15.316Z,1015.18
2022-11-25T03:02:15.283Z,1015.18
2022-11-25T03:03:15.171Z,1015.15
2022-11-25T03:04:15.164Z,1015.15
2022-11-25T03:05:15.161Z,1015.19
2022-11-25T03:06:15.108Z,1015.26
2022-11-25T03:07:15.163Z,1015.22
2022-11-25T03:08:15.124Z,1015.17
2022-11-25T03:09:15.093Z,1015.15
2022-11-25T03:10:15.054Z,1015.14
2022-11-25T03:11:15.060Z,1015.13
2022-11-25T03:12:15.035Z,1015.16
2022-11-25T03:13:15.065Z,1015.12
2022-11-25T03:14:15.089Z,1015.10
2022-11-25T03:15:15.035Z,1015.09
2022-11-25T03:16:15.078Z,1015.06
2022-11-25T03:17:14.988Z,1015.14
2022-11-25T03:18:14.952Z,1015.12
2022-11-25T03:19:14.964Z,1015.15
2022-11-25T03:20:14.966Z,1015.14
2022-11-25T03:21:14.957Z,1015.13
2022-11-25T03:22:14.929Z,1015.11
2022-11-25T03:23:14.919Z,1015.09
2022-11-25T03:24:14.910Z,1015.16
2022-11-25T03:25:14.884Z,1015.13
2022-11-25T03:26:14.887Z,1015.09
2022-11-25T03:27:14.858Z,1015.11
2022-11-25T03:28:14.840Z,1015.11
2022-11-25T03:29:14.830Z,1015.11
2022-11-25T03:30:14.800Z,1015.07
2022-11-25T03:31:14.851Z,1015.09
2022-11-25T03:32:14.848Z,1015.07
2022-11-25T03:33:14.785Z,1015.12
2022-11-25T03:34:14.742Z,1015.08
2022-11-25T03:35:14.749Z,1015.08
2022-11-25T03:36:14.739Z,1015.14
2022-11-25T03:37:14.773Z,1015.13
2022-11-25T03:38:14.730Z,1015.18
2022-11-25T03:39:14.709Z,1015.19
2022-11-25T03:40:14.676Z,1015.13
2022-11-25T03:41:14.678Z,1015.15
2022-11-25T03:42:14.674Z,1015.16
2022-11-25T03:43:14.662Z,1015.14
2022-11-25T03:44:14.646Z,1015.15
2022-11-25T03:45:14.627Z,1015.15
2022-11-25T03:46:14.616Z,1015.23
2022-11-25T03:47:14.617Z,1015.17
2022-11-25T03:48:14.608Z,1015.15
2022-11-25T03:49:14.581Z,1015.22
2022-11-25T03:50:14.588Z,1015.15
2022-11-25T03:51:14.555Z,1015.23
2022-11-25T03:52:14.531Z,1015.22
2022-11-25T03:53:14.524Z,1015.16
2022-11-25T03:54:14.497Z,1015.15
2022-11-25T03:55:14.515Z,1015.19
2022-11-25T03:56:14.502Z,1015.25
2022-11-25T03:57:14.474Z,1015.20
2022-11-25T03:58:14.438Z,1015.22
2022-11-25T03:59:14.443Z,1015.30
2022-11-25T04:00:14.438Z,1015.24
2022-11-25T04:01:14.470Z,1015.31
2022-11-25T04:02:14.558Z,1015.23
2022-11-25T04:03:14.394Z,1015.28
2022-11-25T04:04:14.386Z,1015.29
2022-11-25T04:05:14.369Z,1015.27
2022-11-25T04:06:14.341Z,1015.30
2022-11-25T04:07:14.413Z,1015.27
2022-11-25T04:08:14.351Z,1015.29
2022-11-25T04:09:14.318Z,1015.28
2022-11-25T04:10:14.309Z,1015.25
2022-11-25T04:11:14.295Z,1015.30
2022-11-25T04:12:14.259Z,1015.27
2022-11-25T04:13:14.262Z,1015.24
2022-11-25T04:14:14.275Z,1015.23
2022-11-25T04:15:14.242Z,1015.30
2022-11-25T04:16:14.245Z,1015.38
2022-11-25T04:17:14.229Z,1015.34
2022-11-25T04:18:14.192Z,1015.38
2022-11-25T04:19:14.191Z,1015.42
2022-11-25T04:20:14.195Z,1015.44
2022-11-25T04:21:14.171Z,1015.45
2022-11-25T04:22:14.135Z,1015.38
2022-11-25T04:23:14.181Z,1015.48
2022-11-25T04:24:14.140Z,1015.37
2022-11-25T04:25:14.146Z,1015.37
2022-11-25T04:26:14.163Z,1015.40
2022-11-25T04:27:14.123Z,1015.39
2022-11-25T04:28:14.054Z,1015.46
2022-11-25T04:29:14.068Z,1015.38
2022-11-25T04:30:14.026Z,1015.40
2022-11-25T04:31:14.084Z,1015.34
2022-11-25T04:32:14.159Z,1015.36
2022-11-25T04:33:14.006Z,1015.37
2022-11-25T04:34:13.981Z,1015.35
2022-11-25T04:35:14.049Z,1015.38
2022-11-25T04:36:13.958Z,1015.41
2022-11-25T04:37:13.959Z,1015.45
2022-11-25T04:38:13.972Z,1015.44
2022-11-25T04:39:13.929Z,1015.50
2022-11-25T04:40:13.893Z,1015.47
2022-11-25T04:41:13.934Z,1015.53
2022-11-25T04:42:13.874Z,1015.47
2022-11-25T04:43:13.888Z,1015.50
2022-11-25T04:44:13.903Z,1015.45
2022-11-25T04:45:23.096Z,1015.44
2022-11-25T04:46:14.659Z,1015.46
2022-11-25T04:47:13.897Z,1015.50
2022-11-25T04:48:13.790Z,1015.47
2022-11-25T04:49:13.811Z,1015.49
2022-11-25T04:50:13.819Z,1015.53
2022-11-25T04:51:13.786Z,1015.48
2022-11-25T04:52:13.775Z,1015.55
2022-11-25T04:53:13.757Z,1015.54
2022-11-25T04:54:17.431Z,1015.63
2022-11-25T04:55:13.729Z,1015.56
2022-11-25T04:56:13.724Z,1015.54
2022-11-25T04:57:13.731Z,1015.71
2022-11-25T04:58:13.666Z,1015.73
2022-11-25T04:59:13.695Z,1015.72
2022-11-25T05:00:13.643Z,1015.74
2022-11-25T05:01:13.699Z,1015.78
2022-11-25T05:02:13.708Z,1015.82
2022-11-25T05:03:13.626Z,1015.82
2022-11-25T05:04:13.671Z,1015.84
2022-11-25T05:05:13.604Z,1015.86
2022-11-25T05:06:13.562Z,1015.85
2022-11-25T05:07:13.611Z,1015.81
2022-11-25T05:08:13.575Z,1015.87
2022-11-25T05:09:13.560Z,1015.91
2022-11-25T05:10:13.511Z,1015.87
2022-11-25T05:11:13.536Z,1015.87
2022-11-25T05:12:13.502Z,1015.88
2022-11-25T05:13:13.504Z,1015.84
2022-11-25T05:14:13.491Z,1015.85
2022-11-25T05:15:13.478Z,1015.88
2022-11-25T05:16:13.467Z,1015.87
2022-11-25T05:17:13.458Z,1015.86
2022-11-25T05:18:13.430Z,1015.84
2022-11-25T05:19:13.426Z,1015.85
2022-11-25T05:20:13.420Z,1015.91
2022-11-25T05:21:13.397Z,1015.91
2022-11-25T05:22:13.357Z,1015.97
2022-11-25T05:23:13.384Z,1015.96
2022-11-25T05:24:13.367Z,1015.97
2022-11-25T05:25:13.358Z,1016.03
2022-11-25T05:26:13.513Z,1016.03
2022-11-25T05:27:13.318Z,1016.04
2022-11-25T05:28:13.284Z,1015.98
2022-11-25T05:29:13.322Z,1016.04
2022-11-25T05:30:13.252Z,1016.04
2022-11-25T05:31:13.324Z,1015.98
2022-11-25T05:32:13.276Z,1015.93
2022-11-25T05:33:13.263Z,1015.95
2022-11-25T05:34:13.204Z,1015.99
2022-11-25T05:35:13.206Z,1015.95
2022-11-25T05:36:13.186Z,1015.98
2022-11-25T05:37:13.184Z,1016.01
2022-11-25T05:38:13.187Z,1016.00
2022-11-25T05:39:13.172Z,1016.04
2022-11-25T05:40:13.121Z,1016.01
2022-11-25T05:41:13.140Z,1016.02
2022-11-25T05:42:13.102Z,1016.02
2022-11-25T05:43:13.106Z,1016.02
2022-11-25T05:44:13.168Z,1016.06
2022-11-25T05:45:13.078Z,1016.07
2022-11-25T05:46:13.077Z,1016.12
2022-11-25T05:47:13.061Z,1016.17
2022-11-25T05:48:13.032Z,1016.17
2022-11-25T05:49:13.034Z,1016.15
2022-11-25T05:50:13.040Z,1016.15
2022-11-25T05:51:13.019Z,1016.12
2022-11-25T05:52:13.004Z,1016.18
2022-11-25T05:53:12.993Z,1016.19
2022-11-25T05:54:12.956Z,1016.19
2022-11-25T05:55:12.963Z,1016.20
2022-11-25T05:56:12.968Z,1016.21
2022-11-25T05:57:12.926Z,1016.25
2022-11-25T05:58:12.906Z,1016.23
2022-11-25T05:59:12.927Z,1016.28
2022-11-25T06:00:12.886Z,1016.26
2022-11-25T06:01:12.877Z,1016.24
2022-11-25T06:02:12.923Z,1016.28
2022-11-25T06:03:12.986Z,1016.29
2022-11-25T06:04:12.817Z,1016.29
2022-11-25T06:05:12.824Z,1016.33
2022-11-25T06:06:12.796Z,1016.31
2022-11-25T06:07:12.985Z,1016.33
2022-11-25T06:08:12.799Z,1016.32
2022-11-25T06:09:12.783Z,1016.26
2022-11-25T06:10:12.749Z,1016.28
2022-11-25T06:11:12.746Z,1016.31
2022-11-25T06:12:12.718Z,1016.31
2022-11-25T06:13:12.727Z,1016.34
2022-11-25T06:14:12.736Z,1016.36
2022-11-25T06:15:12.697Z,1016.33
2022-11-25T06:16:12.727Z,1016.40
2022-11-25T06:17:12.706Z,1016.38
2022-11-25T06:18:12.649Z,1016.40
2022-11-25T06:19:12.648Z,1016.40
2022-11-25T06:20:12.612Z,1016.38
2022-11-25T06:21:12.629Z,1016.42
2022-11-25T06:22:12.618Z,1016.40
2022-11-25T06:23:12.596Z,1016.45
2022-11-25T06:24:12.565Z,1016.42
2022-11-25T06:25:12.563Z,1016.42
2022-11-25T06:26:12.552Z,1016.45
2022-11-25T06:27:12.533Z,1016.45
2022-11-25T06:28:13.511Z,1016.44
2022-11-25T06:29:12.495Z,1016.48
2022-11-25T06:30:12.457Z,1016.49
2022-11-25T06:31:12.505Z,1016.50
2022-11-25T06:32:12.424Z,1016.51
2022-11-25T06:33:12.476Z,1016.53
2022-11-25T06:34:12.416Z,1016.60
2022-11-25T06:35:12.359Z,1016.63
2022-11-25T06:36:12.375Z,1016.57
2022-11-25T06:37:12.408Z,1016.58
2022-11-25T06:38:12.392Z,1016.56
2022-11-25T06:39:12.310Z,1016.59
2022-11-25T06:40:12.332Z,1016.60
2022-11-25T06:41:12.293Z,1016.60
2022-11-25T06:42:12.549Z,1016.54
2022-11-25T06:43:12.270Z,1016.61
2022-11-25T06:44:12.297Z,1016.59
2022-11-25T06:45:12.250Z,1016.59
2022-11-25T06:46:12.264Z,1016.55
2022-11-25T06:47:12.216Z,1016.65
2022-11-25T06:48:12.217Z,1016.65
2022-11-25T06:49:12.226Z,1016.73
2022-11-25T06:50:12.218Z,1016.65
2022-11-25T06:51:12.158Z,1016.73
2022-11-25T06:52:12.185Z,1016.70
2022-11-25T06:53:12.136Z,1016.68
2022-11-25T06:54:12.181Z,1016.68
2022-11-25T06:55:12.131Z,1016.72
2022-11-25T06:56:12.138Z,1016.73
2022-11-25T06:57:12.227Z,1016.77
2022-11-25T06:58:34.279Z,1016.82
2022-11-25T06:59:12.074Z,1016.77
2022-11-25T07:00:12.086Z,1016.82
2022-11-25T07:01:12.075Z,1016.84
2022-11-25T07:02:12.087Z,1016.82
2022-11-25T07:03:12.023Z,1016.84
2022-11-25T07:04:12.022Z,1016.91
2022-11-25T07:05:12.017Z,1016.84
2022-11-25T07:06:11.990Z,1016.88
2022-11-25T07:07:11.997Z,1016.90
2022-11-25T07:08:11.958Z,1016.91
2022-11-25T07:09:11.926Z,1016.91
2022-11-25T07:10:11.950Z,1016.89
2022-11-25T07:11:11.938Z,1016.92
2022-11-25T07:12:11.919Z,1016.91
2022-11-25T07:13:11.889Z,1016.91
2022-11-25T07:14:11.894Z,1016.91
2022-11-25T07:15:11.856Z,1016.92
2022-11-25T07:16:12.021Z,1016.94
2022-11-25T07:17:12.436Z,1016.93
2022-11-25T07:18:11.832Z,1016.91
2022-11-25T07:19:11.794Z,1016.93
2022-11-25T07:20:11.814Z,1016.97
2022-11-25T07:21:11.775Z,1016.93
2022-11-25T07:22:11.821Z,1016.96
2022-11-25T07:23:11.751Z,1016.94
2022-11-25T07:24:11.762Z,1017.01
2022-11-25T07:25:11.717Z,1016.95
2022-11-25T07:26:11.738Z,1016.97
2022-11-25T07:27:11.744Z,1016.99
2022-11-25T07:28:11.708Z,1017.03
2022-11-25T07:29:36.430Z,1017.08
2022-11-25T07:30:54.829Z,1017.12
2022-11-25T07:31:31.104Z,1017.09
2022-11-25T07:32:11.659Z,1017.13
2022-11-25T07:33:11.691Z,1017.12
2022-11-25T07:34:11.625Z,1017.13
2022-11-25T07:35:11.596Z,1017.16
2022-11-25T07:36:11.605Z,1017.17
2022-11-25T07:37:11.575Z,1017.21
2022-11-25T07:38:11.648Z,1017.18
2022-11-25T07:39:11.543Z,1017.26
2022-11-25T07:40:11.584Z,1017.19
2022-11-25T07:41:11.514Z,1017.27
2022-11-25T07:42:11.535Z,1017.26
2022-11-25T07:43:11.494Z,1017.23
2022-11-25T07:44:11.535Z,1017.22
2022-11-25T07:45:11.462Z,1017.30
2022-11-25T07:46:11.513Z,1017.27
2022-11-25T07:47:11.440Z,1017.32
2022-11-25T07:48:11.444Z,1017.40
2022-11-25T07:49:11.470Z,1017.33
2022-11-25T07:50:11.427Z,1017.38
2022-11-25T07:51:11.386Z,1017.42
2022-11-25T07:52:11.410Z,1017.42
2022-11-25T07:53:11.366Z,1017.44
2022-11-25T07:54:11.372Z,1017.46
2022-11-25T07:55:11.376Z,1017.51
2022-11-25T07:56:11.347Z,1017.50
2022-11-25T07:57:11.359Z,1017.50
2022-11-25T07:58:11.327Z,1017.52
2022-11-25T07:59:11.322Z,1017.55
2022-11-25T08:00:11.359Z,1017.58
2022-11-25T08:01:11.427Z,1017.56
2022-11-25T08:02:11.282Z,1017.61
2022-11-25T08:03:11.423Z,1017.60
2022-11-25T08:04:15.078Z,1017.61
2022-11-25T08:05:11.211Z,1017.60
2022-11-25T08:06:11.347Z,1017.68
2022-11-25T08:07:11.267Z,1017.63
2022-11-25T08:08:11.256Z,1017.65
2022-11-25T08:09:11.162Z,1017.73
2022-11-25T08:10:11.170Z,1017.76
2022-11-25T08:11:11.199Z,1017.71
2022-11-25T08:12:11.230Z,1017.74
2022-11-25T08:13:11.108Z,1017.74
2022-11-25T08:14:11.172Z,1017.79
2022-11-25T08:15:11.087Z,1017.78
2022-11-25T08:16:11.150Z,1017.79
2022-11-25T08:17:11.082Z,1017.75
2022-11-25T08:18:11.135Z,1017.82
2022-11-25T08:19:11.032Z,1017.79
2022-11-25T08:20:11.107Z,1017.76
2022-11-25T08:21:11.005Z,1017.79
2022-11-25T08:22:11.204Z,1017.82
2022-11-25T08:23:10.980Z,1017.82
2022-11-25T08:24:10.996Z,1017.78
2022-11-25T08:25:10.979Z,1017.81
2022-11-25T08:26:11.039Z,1017.81
2022-11-25T08:27:10.931Z,1017.85
2022-11-25T08:28:10.987Z,1017.86
2022-11-25T08:29:10.917Z,1017.85
2022-11-25T08:30:10.931Z,1017.86
2022-11-25T08:31:10.929Z,1017.96
2022-11-25T08:32:12.133Z,1017.90
2022-11-25T08:33:10.882Z,1017.90
2022-11-25T08:34:10.858Z,1017.97
2022-11-25T08:35:10.818Z,1017.98
2022-11-25T08:36:11.029Z,1018.03
2022-11-25T08:37:10.810Z,1017.99
2022-11-25T08:38:10.869Z,1018.03
2022-11-25T08:39:36.185Z,1018.01
2022-11-25T08:40:10.809Z,1017.99
2022-11-25T08:41:10.783Z,1017.97
2022-11-25T08:42:10.839Z,1017.99
2022-11-25T08:43:10.747Z,1018.05
2022-11-25T08:44:10.766Z,1018.04
2022-11-25T08:45:10.716Z,1018.01
2022-11-25T08:46:10.762Z,1018.05
2022-11-25T08:47:10.673Z,1018.12
2022-11-25T08:48:10.695Z,1018.07
2022-11-25T08:49:10.697Z,1018.10
2022-11-25T08:50:10.653Z,1018.10
2022-11-25T08:51:10.615Z,1018.07
2022-11-25T08:52:10.644Z,1018.14
2022-11-25T08:53:10.619Z,1018.11
2022-11-25T08:54:10.681Z,1018.12
2022-11-25T08:55:10.621Z,1018.15
2022-11-25T08:56:10.582Z,1018.18
2022-11-25T08:57:10.610Z,1018.15
2022-11-25T08:58:10.583Z,1018.21
2022-11-25T08:59:10.541Z,1018.24
2022-11-25T09:00:10.559Z,1018.25
2022-11-25T09:01:10.529Z,1018.26
2022-11-25T09:02:10.540Z,1018.30
2022-11-25T09:03:10.576Z,1018.29
2022-11-25T09:04:10.497Z,1018.31
2022-11-25T09:05:10.457Z,1018.33
2022-11-25T09:06:10.516Z,1018.34
2022-11-25T09:07:10.466Z,1018.34
2022-11-25T09:08:10.487Z,1018.35
2022-11-25T09:09:10.462Z,1018.36
2022-11-25T09:10:10.421Z,1018.34
2022-11-25T09:11:10.468Z,1018.35
2022-11-25T09:12:10.380Z,1018.33
2022-11-25T09:13:10.354Z,1018.37
2022-11-25T09:14:10.402Z,1018.38
2022-11-25T09:15:10.311Z,1018.32
2022-11-25T09:16:10.503Z,1018.33
2022-11-25T09:17:10.345Z,1018.39
2022-11-25T09:18:10.296Z,1018.41
2022-11-25T09:19:10.260Z,1018.39
2022-11-25T09:20:10.271Z,1018.40
2022-11-25T09:21:10.237Z,1018.45
2022-11-25T09:22:10.308Z,1018.46
2022-11-25T09:23:10.205Z,1018.52
2022-11-25T09:24:10.343Z,1018.51
2022-11-25T09:25:10.180Z,1018.48
2022-11-25T09:26:10.191Z,1018.52
2022-11-25T09:27:10.179Z,1018.50
2022-11-25T09:28:10.278Z,1018.52
2022-11-25T09:29:10.134Z,1018.53
2022-11-25T09:30:10.159Z,1018.48
2022-11-25T09:31:10.168Z,1018.54
2022-11-25T09:32:10.194Z,1018.53
2022-11-25T09:33:10.123Z,1018.54
2022-11-25T09:34:10.116Z,1018.57
2022-11-25T09:35:10.070Z,1018.62
2022-11-25T09:36:10.063Z,1018.68
2022-11-25T09:37:10.032Z,1018.69
2022-11-25T09:38:10.062Z,1018.72
2022-11-25T09:39:10.062Z,1018.74
2022-11-25T09:40:10.014Z,1018.76
2022-11-25T09:41:10.079Z,1018.79
2022-11-25T09:42:09.991Z,1018.78
2022-11-25T09:43:09.951Z,1018.81
2022-11-25T09:44:10.004Z,1018.80
2022-11-25T09:45:09.917Z,1018.81
2022-11-25T09:46:10.035Z,1018.80
2022-11-25T09:47:09.895Z,1018.83
2022-11-25T09:48:09.920Z,1018.82
2022-11-25T09:49:09.880Z,1018.83
2022-11-25T09:50:09.915Z,1018.79
2022-11-25T09:51:09.859Z,1018.80
2022-11-25T09:52:09.934Z,1018.80
2022-11-25T09:53:09.822Z,1018.81
2022-11-25T09:54:09.838Z,1018.80
2022-11-25T09:55:09.897Z,1018.81
2022-11-25T09:56:09.801Z,1018.79
2022-11-25T09:57:09.771Z,1018.85
2022-11-25T09:58:09.858Z,1018.87
2022-11-25T09:59:09.740Z,1018.85
2022-11-25T10:00:09.757Z,1018.93
2022-11-25T10:01:09.838Z,1018.94
2022-11-25T10:02:09.737Z,1018.90
2022-11-25T10:03:09.725Z,1018.93
2022-11-25T10:04:09.723Z,1018.95
2022-11-25T10:05:09.682Z,1018.95
2022-11-25T10:06:09.742Z,1018.99
2022-11-25T10:07:09.645Z,1018.99
2022-11-25T10:08:09.729Z,1019.00
2022-11-25T10:09:09.625Z,1018.99
2022-11-25T10:10:09.625Z,1018.99
2022-11-25T10:11:09.641Z,1018.94
2022-11-25T10:12:09.650Z,1018.95
2022-11-25T10:13:09.563Z,1019.01
2022-11-25T10:14:09.578Z,1018.97
2022-11-25T10:15:09.642Z,1019.02
2022-11-25T10:16:09.614Z,1019.04
2022-11-25T10:17:09.500Z,1019.06
2022-11-25T10:18:09.545Z,1019.08
2022-11-25T10:19:09.529Z,1019.09
2022-11-25T10:20:09.499Z,1019.09
2022-11-25T10:21:09.451Z,1019.07
2022-11-25T10:22:09.470Z,1019.13
2022-11-25T10:23:09.488Z,1019.12
2022-11-25T10:24:09.445Z,1019.16
2022-11-25T10:25:09.403Z,1019.16
2022-11-25T10:26:09.422Z,1019.13
2022-11-25T10:27:09.376Z,1019.17
2022-11-25T10:28:09.393Z,1019.19
2022-11-25T10:29:09.446Z,1019.21
2022-11-25T10:30:09.372Z,1019.21
2022-11-25T10:31:09.358Z,1019.18
2022-11-25T10:32:09.368Z,1019.19
2022-11-25T10:33:09.302Z,1019.17
2022-11-25T10:34:09.356Z,1019.20
2022-11-25T10:35:09.274Z,1019.21
2022-11-25T10:36:09.317Z,1019.24
2022-11-25T10:37:09.245Z,1019.26
2022-11-25T10:38:12.250Z,1019.24
2022-11-25T10:39:09.333Z,1019.20
2022-11-25T10:40:09.258Z,1019.28
2022-11-25T10:41:09.216Z,1019.26
2022-11-25T10:42:09.234Z,1019.27
2022-11-25T10:43:09.205Z,1019.28
2022-11-25T10:44:09.154Z,1019.28
2022-11-25T10:45:09.233Z,1019.31
2022-11-25T10:46:09.225Z,1019.33
2022-11-25T10:47:14.328Z,1019.36
2022-11-25T10:48:09.106Z,1019.33
2022-11-25T10:49:09.156Z,1019.37
2022-11-25T10:50:09.097Z,1019.38
2022-11-25T10:51:09.123Z,1019.37
2022-11-25T10:52:09.106Z,1019.37
2022-11-25T10:53:09.073Z,1019.42
2022-11-25T10:54:09.028Z,1019.45
2022-11-25T10:55:09.153Z,1019.48
2022-11-25T10:56:09.045Z,1019.45
2022-11-25T10:57:09.015Z,1019.40
2022-11-25T10:58:09.021Z,1019.38
2022-11-25T10:59:08.988Z,1019.42
2022-11-25T11:00:14.123Z,1019.43
2022-11-25T11:01:08.995Z,1019.47
2022-11-25T11:02:09.032Z,1019.47
2022-11-25T11:03:08.972Z,1019.47
2022-11-25T11:04:08.896Z,1019.44
2022-11-25T11:05:08.939Z,1019.40
2022-11-25T11:06:08.875Z,1019.46
2022-11-25T11:07:08.992Z,1019.41
2022-11-25T11:08:08.865Z,1019.46
2022-11-25T11:09:08.903Z,1019.46
2022-11-25T11:10:08.825Z,1019.45
2022-11-25T11:11:08.833Z,1019.43
2022-11-25T11:12:08.897Z,1019.52
2022-11-25T11:13:08.844Z,1019.45
2022-11-25T11:14:08.760Z,1019.52
2022-11-25T11:15:08.784Z,1019.54
2022-11-25T11:16:08.861Z,1019.53
2022-11-25T11:17:08.755Z,1019.53
2022-11-25T11:18:08.782Z,1019.53
2022-11-25T11:19:08.798Z,1019.56
2022-11-25T11:20:08.684Z,1019.52
2022-11-25T11:21:08.698Z,1019.49
2022-11-25T11:22:08.764Z,1019.52
2022-11-25T11:23:09.348Z,1019.56
2022-11-25T11:24:08.677Z,1019.60
2022-11-25T11:25:08.642Z,1019.57
2022-11-25T11:26:08.624Z,1019.53
2022-11-25T11:27:08.646Z,1019.58
2022-11-25T11:28:08.589Z,1019.57
2022-11-25T11:29:13.953Z,1019.61
2022-11-25T11:30:08.561Z,1019.60
2022-11-25T11:31:08.605Z,1019.65
2022-11-25T11:32:08.638Z,1019.71
2022-11-25T11:33:08.559Z,1019.66
2022-11-25T11:34:08.525Z,1019.66
2022-11-25T11:35:08.618Z,1019.72
2022-11-25T11:36:08.489Z,1019.68
2022-11-25T11:37:08.485Z,1019.68
2022-11-25T11:38:08.493Z,1019.73
2022-11-25T11:39:08.475Z,1019.73
2022-11-25T11:40:08.472Z,1019.73
2022-11-25T11:41:08.452Z,1019.76
2022-11-25T11:42:08.401Z,1019.78
2022-11-25T11:43:08.499Z,1019.80
2022-11-25T11:44:08.379Z,1019.83
2022-11-25T11:45:08.389Z,1019.82
2022-11-25T11:46:08.480Z,1019.84
2022-11-25T11:47:08.471Z,1019.83
2022-11-25T11:48:08.331Z,1019.84
2022-11-25T11:49:08.428Z,1019.84
2022-11-25T11:50:08.332Z,1019.87
2022-11-25T11:51:08.336Z,1019.97
2022-11-25T11:52:08.276Z,1019.93
2022-11-25T11:53:08.330Z,1019.91
2022-11-25T11:54:08.260Z,1019.93
2022-11-25T11:55:08.276Z,1019.92
2022-11-25T11:57:08.290Z,1019.92
2022-11-25T11:58:08.192Z,1019.94
2022-11-25T11:59:08.218Z,1019.93
2022-11-25T12:00:08.190Z,1019.96
2022-11-25T12:01:08.184Z,1019.95
2022-11-25T12:02:08.247Z,1019.99
2022-11-25T12:03:08.309Z,1019.96
2022-11-25T12:04:08.121Z,1019.89
2022-11-25T12:05:08.132Z,1019.91
2022-11-25T12:06:08.165Z,1019.89
2022-11-25T12:07:08.168Z,1019.93